Time;durP1;ratioP1;P1;durP2;ratioP2;P2;SDS_P1;SDS_P2;PMS_P1;PMS_P2;Temp;Humidity;BMP_temperature;BMP_pressure;BME280_temperature;BME280_humidity;BME280_pressure;Samples;Min_cycle;Max_cycle;Signal;HPM_P1;HPM_P2
2023/12/05 00:01:19;;;;;;;14.10;12.60;;;7.00;99.90;;;;;;5076216;28;20201;-76
2023/12/05 00:03:45;;;;;;;13.57;12.17;;;6.90;99.90;;;;;;5075995;28;20641;-75
2023/12/05 00:06:11;;;;;;;13.47;11.70;;;6.90;99.90;;;;;;5076070;28;21403;-75
2023/12/05 00:08:37;;;;;;;14.57;12.80;;;6.80;99.90;;;;;;5075943;28;20215;-74
2023/12/05 00:11:05;;;;;;;14.73;12.90;;;6.80;99.90;;;;;;5075934;28;20172;-74
2023/12/05 00:13:31;;;;;;;14.90;12.97;;;6.90;99.90;;;;;;5075643;28;20168;-75
2023/12/05 00:15:56;;;;;;;16.23;13.60;;;7.00;99.90;;;;;;5076035;28;20161;-74
2023/12/05 00:18:22;;;;;;;20.60;15.83;;;7.00;99.90;;;;;;5057660;28;20216;-74
2023/12/05 00:20:47;;;;;;;20.50;13.83;;;7.00;99.90;;;;;;5075719;28;20168;-74
2023/12/05 00:23:13;;;;;;;19.63;14.03;;;6.90;99.90;;;;;;5075730;28;20640;-74
2023/12/05 00:25:38;;;;;;;20.43;13.77;;;6.70;99.90;;;;;;5075697;28;20179;-74
2023/12/05 00:28:04;;;;;;;15.73;12.93;;;6.60;99.90;;;;;;5073576;28;20238;-74
2023/12/05 00:30:30;;;;;;;16.07;13.33;;;6.60;99.90;;;;;;5075460;28;20173;-74
2023/12/05 00:32:55;;;;;;;15.47;13.03;;;6.50;99.90;;;;;;5075405;28;20169;-74
2023/12/05 00:35:21;;;;;;;15.30;12.47;;;6.50;99.90;;;;;;5075491;28;20184;-74
2023/12/05 00:37:47;;;;;;;14.97;12.43;;;6.50;99.90;;;;;;5075494;28;20173;-74
2023/12/05 00:40:13;;;;;;;15.37;12.90;;;6.50;99.90;;;;;;5075502;28;20173;-74
2023/12/05 00:42:39;;;;;;;16.03;13.33;;;6.60;99.90;;;;;;5074838;28;20300;-74
2023/12/05 00:45:05;;;;;;;17.47;13.97;;;6.60;99.90;;;;;;5075330;28;20251;-74
2023/12/05 00:47:31;;;;;;;18.57;14.27;;;6.70;99.90;;;;;;5075266;28;20165;-74
2023/12/05 00:49:56;;;;;;;17.80;13.43;;;6.80;99.90;;;;;;5075306;28;20168;-74
2023/12/05 00:52:22;;;;;;;15.17;12.90;;;6.90;99.90;;;;;;5075261;28;20659;-74
2023/12/05 00:54:47;;;;;;;13.23;11.83;;;6.70;99.90;;;;;;5074989;28;20306;-74
2023/12/05 00:57:13;;;;;;;15.47;12.23;;;6.60;99.90;;;;;;5073488;28;20215;-74
2023/12/05 00:59:39;;;;;;;13.33;12.00;;;6.60;99.90;;;;;;5074972;28;20177;-74
2023/12/05 01:02:04;;;;;;;14.03;11.77;;;6.50;99.90;;;;;;5074018;28;20247;-75
2023/12/05 01:04:30;;;;;;;13.87;12.33;;;6.50;99.90;;;;;;5074980;28;20191;-75
2023/12/05 01:06:55;;;;;;;17.77;12.83;;;6.50;99.90;;;;;;5074910;28;20177;-75
2023/12/05 01:09:22;;;;;;;15.43;12.30;;;6.60;99.90;;;;;;5074571;28;20532;-75
2023/12/05 01:11:48;;;;;;;15.97;12.10;;;6.60;99.90;;;;;;5074789;28;20644;-75
2023/12/05 01:14:13;;;;;;;14.40;11.60;;;6.50;99.90;;;;;;5073368;28;20196;-74
2023/12/05 01:16:43;;;;;;;15.90;12.60;;;6.50;99.90;;;;;;5074722;28;20218;-75
2023/12/05 01:19:09;;;;;;;16.03;12.57;;;6.60;99.90;;;;;;5074477;28;20679;-74
2023/12/05 01:21:35;;;;;;;16.70;13.50;;;6.70;99.90;;;;;;5073532;28;20249;-74
2023/12/05 01:24:00;;;;;;;17.80;13.93;;;6.90;99.90;;;;;;5074240;28;20165;-74
2023/12/05 01:26:26;;;;;;;16.90;14.30;;;7.00;99.90;;;;;;5074240;28;20299;-75
2023/12/05 01:28:52;;;;;;;17.17;13.70;;;7.00;99.90;;;;;;5074204;28;20292;-75
2023/12/05 01:31:17;;;;;;;14.90;13.40;;;7.00;99.90;;;;;;5074246;28;20620;-74
2023/12/05 01:33:43;;;;;;;12.93;11.60;;;6.90;99.90;;;;;;5074278;28;20172;-74
2023/12/05 01:36:10;;;;;;;17.83;13.37;;;7.00;99.90;;;;;;5074269;28;20188;-74
2023/12/05 01:38:36;;;;;;;15.33;12.90;;;6.90;99.90;;;;;;5072519;28;20176;-74
2023/12/05 01:41:01;;;;;;;14.73;12.27;;;6.90;99.90;;;;;;5074072;28;20173;-75
2023/12/05 01:43:27;;;;;;;16.43;13.50;;;7.00;99.90;;;;;;5074074;28;20181;-74
2023/12/05 01:45:54;;;;;;;18.57;13.47;;;7.00;99.90;;;;;;5073905;28;20247;-74
2023/12/05 01:48:21;;;;;;;16.47;12.20;;;7.00;99.90;;;;;;5074117;28;20178;-74
2023/12/05 01:50:47;;;;;;;13.83;12.33;;;7.10;99.90;;;;;;5073940;28;20627;-75
2023/12/05 01:53:14;;;;;;;15.00;13.13;;;7.10;99.90;;;;;;5072513;28;20184;-74
2023/12/05 01:55:42;;;;;;;16.10;12.20;;;7.00;99.90;;;;;;5073911;28;20164;-74
2023/12/05 01:58:08;;;;;;;18.43;13.17;;;7.10;99.90;;;;;;5073884;28;20222;-75
2023/12/05 02:00:37;;;;;;;18.23;12.30;;;7.10;99.90;;;;;;5073481;28;20177;-74
2023/12/05 02:03:03;;;;;;;15.63;12.00;;;7.20;99.90;;;;;;5072449;28;20211;-75
2023/12/05 02:05:29;;;;;;;16.13;12.50;;;7.30;99.90;;;;;;5073924;28;20256;-74
2023/12/05 02:07:55;;;;;;;14.10;12.57;;;7.40;99.90;;;;;;5072124;28;20263;-74
2023/12/05 02:10:21;;;;;;;14.17;12.53;;;7.20;99.90;;;;;;5073623;28;20179;-75
2023/12/05 02:12:47;;;;;;;14.73;13.10;;;7.20;99.90;;;;;;5073551;28;20183;-75
2023/12/05 02:15:13;;;;;;;14.97;12.50;;;7.30;99.90;;;;;;5073543;28;20215;-75
2023/12/05 02:18:01;;;;;;;14.10;12.27;;;7.30;99.90;;;;;;5073724;28;20169;-74
2023/12/05 02:20:36;;;;;;;16.00;12.53;;;7.30;99.90;;;;;;5073481;28;20179;-74
2023/12/05 02:23:01;;;;;;;14.50;12.93;;;7.30;99.90;;;;;;5073132;28;20717;-75
2023/12/05 02:25:47;;;;;;;14.63;13.00;;;7.40;99.90;;;;;;5073328;28;20200;-75
2023/12/05 02:28:13;;;;;;;13.57;11.83;;;7.40;99.90;;;;;;5072935;28;20725;-75
2023/12/05 02:30:38;;;;;;;17.43;14.57;;;7.40;99.90;;;;;;5072501;28;20172;-75
2023/12/05 02:33:04;;;;;;;15.47;12.87;;;7.50;99.90;;;;;;5072910;28;20728;-75
2023/12/05 02:35:30;;;;;;;14.33;12.83;;;7.50;99.90;;;;;;5073085;28;20654;-75
2023/12/05 02:38:00;;;;;;;14.43;12.87;;;7.70;99.90;;;;;;5072270;28;20184;-75
2023/12/05 02:40:31;;;;;;;13.67;12.27;;;7.60;99.90;;;;;;5073144;28;20522;-74
2023/12/05 02:42:57;;;;;;;14.57;13.07;;;7.60;99.90;;;;;;5071611;28;20273;-74
2023/12/05 02:45:28;;;;;;;13.47;12.07;;;7.50;99.90;;;;;;5073388;28;20195;-74
2023/12/05 02:47:56;;;;;;;12.93;11.53;;;7.40;99.90;;;;;;5073271;28;20647;-75
2023/12/05 02:50:21;;;;;;;16.00;11.30;;;7.40;99.90;;;;;;5071829;28;20184;-75
2023/12/05 02:52:47;;;;;;;13.37;11.80;;;7.40;99.90;;;;;;5072703;28;20175;-74
2023/12/05 02:55:13;;;;;;;12.87;11.57;;;7.30;99.90;;;;;;5073072;28;20639;-74
2023/12/05 02:57:38;;;;;;;13.07;11.70;;;7.30;99.90;;;;;;5073042;28;20233;-74
2023/12/05 03:00:06;;;;;;;13.07;11.30;;;7.30;99.90;;;;;;5073048;28;20172;-74
2023/12/05 03:02:31;;;;;;;11.93;10.80;;;7.30;99.90;;;;;;5072973;28;20218;-75
2023/12/05 03:04:57;;;;;;;12.47;11.17;;;7.20;99.90;;;;;;5073091;28;20165;-74
2023/12/05 03:07:23;;;;;;;13.73;11.20;;;7.30;99.90;;;;;;5072616;28;20173;-74
2023/12/05 03:09:48;;;;;;;12.57;11.10;;;7.30;99.90;;;;;;5073001;28;20165;-74
2023/12/05 03:12:14;;;;;;;13.07;11.47;;;7.30;99.90;;;;;;5072935;28;20590;-73
2023/12/05 03:14:39;;;;;;;13.90;11.53;;;7.30;99.90;;;;;;5071707;28;20508;-75
2023/12/05 03:17:05;;;;;;;13.03;11.70;;;7.40;99.90;;;;;;5073024;28;20520;-74
2023/12/05 03:19:31;;;;;;;12.53;11.23;;;7.40;99.90;;;;;;5072892;28;20172;-74
2023/12/05 03:21:57;;;;;;;12.80;11.40;;;7.40;99.90;;;;;;5072509;28;20250;-75
2023/12/05 03:24:22;;;;;;;13.03;11.63;;;7.40;99.90;;;;;;5073106;28;20169;-75
2023/12/05 03:26:48;;;;;;;13.57;12.10;;;7.50;99.90;;;;;;5076372;28;20713;-75
2023/12/05 03:29:13;;;;;;;13.10;11.70;;;7.40;99.90;;;;;;5076829;28;20199;-74
2023/12/05 03:31:40;;;;;;;13.77;11.80;;;7.40;99.90;;;;;;5076744;28;20180;-74
2023/12/05 03:34:06;;;;;;;13.03;11.73;;;7.40;99.90;;;;;;5076740;28;20192;-75
2023/12/05 03:36:32;;;;;;;13.10;11.70;;;7.50;99.90;;;;;;5076280;28;20173;-75
2023/12/05 03:38:58;;;;;;;15.73;12.50;;;7.50;99.90;;;;;;5076552;28;20300;-75
2023/12/05 03:41:24;;;;;;;13.97;11.80;;;7.60;99.90;;;;;;5076145;28;20699;-75
2023/12/05 03:43:49;;;;;;;13.50;12.00;;;7.50;99.90;;;;;;5075375;28;20176;-75
2023/12/05 03:46:15;;;;;;;15.20;11.90;;;7.60;99.90;;;;;;5076466;28;20218;-75
2023/12/05 03:48:41;;;;;;;12.83;11.53;;;7.60;99.90;;;;;;5076390;28;20172;-75
2023/12/05 03:51:07;;;;;;;13.03;11.57;;;7.60;99.90;;;;;;5075927;28;20222;-75
2023/12/05 03:53:32;;;;;;;15.67;12.13;;;7.60;99.90;;;;;;5076324;28;20585;-75
2023/12/05 03:55:58;;;;;;;13.50;12.10;;;7.50;99.90;;;;;;5074838;28;20180;-75
2023/12/05 03:58:24;;;;;;;13.17;11.77;;;7.60;99.90;;;;;;5076145;28;20255;-75
2023/12/05 04:00:49;;;;;;;13.00;11.50;;;7.50;99.90;;;;;;5076339;28;20204;-75
2023/12/05 04:03:15;;;;;;;14.83;11.87;;;7.40;99.90;;;;;;5075998;28;20222;-75
2023/12/05 04:05:41;;;;;;;13.17;11.77;;;7.40;99.90;;;;;;5075677;28;20629;-75
2023/12/05 04:08:07;;;;;;;12.87;11.50;;;7.50;99.90;;;;;;5075959;28;20180;-75
2023/12/05 04:10:33;;;;;;;12.53;11.23;;;7.40;99.90;;;;;;5076011;28;20173;-75
2023/12/05 04:12:58;;;;;;;13.27;11.40;;;7.40;99.90;;;;;;5075763;28;20731;-75
2023/12/05 04:15:24;;;;;;;14.57;12.27;;;7.40;99.90;;;;;;5075875;28;20239;-75
2023/12/05 04:17:50;;;;;;;13.87;12.17;;;7.40;99.90;;;;;;5074299;28;20183;-75
2023/12/05 04:20:17;;;;;;;12.77;11.47;;;7.40;99.90;;;;;;5073872;28;20268;-75
2023/12/05 04:22:42;;;;;;;12.70;11.40;;;7.30;99.90;;;;;;5075677;28;20212;-75
2023/12/05 04:25:10;;;;;;;15.73;11.87;;;7.40;99.90;;;;;;5075745;28;20160;-75
2023/12/05 04:27:35;;;;;;;13.10;11.70;;;7.30;99.90;;;;;;5075197;28;20240;-75
2023/12/05 04:30:01;;;;;;;15.53;12.20;;;7.30;99.90;;;;;;5075205;28;20256;-74
2023/12/05 04:32:26;;;;;;;16.27;12.30;;;7.30;99.90;;;;;;5074949;28;20255;-74
2023/12/05 04:34:52;;;;;;;15.40;12.53;;;7.10;99.90;;;;;;5074886;28;20574;-74
2023/12/05 04:37:18;;;;;;;15.50;12.67;;;7.00;99.90;;;;;;5074105;28;20708;-74
2023/12/05 04:39:43;;;;;;;16.03;12.67;;;6.90;99.90;;;;;;5075241;28;20173;-74
2023/12/05 04:42:09;;;;;;;17.63;12.83;;;6.90;99.90;;;;;;5075007;28;20690;-73
2023/12/05 04:44:35;;;;;;;15.67;13.10;;;7.00;99.90;;;;;;5074887;28;20173;-74
2023/12/05 04:47:03;;;;;;;16.93;13.73;;;7.10;99.90;;;;;;5074531;28;20259;-75
2023/12/05 04:49:29;;;;;;;17.93;13.90;;;7.10;99.90;;;;;;5075029;28;20180;-74
2023/12/05 04:51:55;;;;;;;17.83;14.13;;;7.10;99.90;;;;;;5074635;28;20176;-75
2023/12/05 04:54:20;;;;;;;17.33;14.10;;;7.20;99.90;;;;;;5074240;28;20177;-74
2023/12/05 04:56:46;;;;;;;24.43;17.23;;;7.20;99.90;;;;;;5074705;28;20164;-75
2023/12/05 04:59:11;;;;;;;16.17;13.27;;;7.20;99.90;;;;;;5074752;28;20181;-74
2023/12/05 05:01:37;;;;;;;15.87;13.87;;;7.20;99.90;;;;;;5074261;28;20208;-75
2023/12/05 05:04:03;;;;;;;15.90;14.20;;;7.30;99.90;;;;;;5074420;28;20173;-77
2023/12/05 05:06:28;;;;;;;16.77;13.30;;;7.20;99.90;;;;;;5074732;28;20176;-76
2023/12/05 05:08:54;;;;;;;16.77;13.40;;;7.20;99.90;;;;;;5074722;28;20210;-76
2023/12/05 05:11:20;;;;;;;15.07;13.17;;;7.20;99.90;;;;;;5074052;28;20537;-76
2023/12/05 05:13:45;;;;;;;16.80;13.37;;;7.10;99.90;;;;;;5074517;28;20176;-76
2023/12/05 05:16:11;;;;;;;17.33;14.97;;;7.30;99.90;;;;;;5074039;28;20172;-75
2023/12/05 05:18:37;;;;;;;20.30;15.47;;;7.30;99.90;;;;;;5074379;28;20537;-75
2023/12/05 05:21:05;;;;;;;19.23;14.60;;;7.30;99.90;;;;;;5072956;28;20208;-75
2023/12/05 05:23:31;;;;;;;17.73;14.17;;;7.20;99.90;;;;;;5074384;28;20739;-74
2023/12/05 05:25:56;;;;;;;16.10;13.73;;;7.10;99.90;;;;;;5073709;28;20254;-75
2023/12/05 05:28:22;;;;;;;17.43;13.80;;;7.00;99.90;;;;;;5072893;28;20201;-77
2023/12/05 05:30:48;;;;;;;19.93;15.20;;;6.80;99.90;;;;;;5073491;28;20173;-75
2023/12/05 05:33:14;;;;;;;20.20;15.13;;;6.80;99.90;;;;;;5073464;28;20169;-74
2023/12/05 05:35:40;;;;;;;19.33;15.57;;;6.80;99.90;;;;;;5073537;28;20168;-75
2023/12/05 05:38:05;;;;;;;20.70;15.90;;;6.80;99.90;;;;;;5074231;28;20255;-75
2023/12/05 05:40:31;;;;;;;23.00;17.23;;;6.70;99.90;;;;;;5073773;28;20734;-75
2023/12/05 05:42:56;;;;;;;22.73;17.40;;;6.70;99.90;;;;;;5073506;28;20694;-74
2023/12/05 05:45:22;;;;;;;23.87;17.70;;;6.80;99.90;;;;;;5072670;28;20168;-74
2023/12/05 05:47:48;;;;;;;24.27;18.40;;;6.80;99.90;;;;;;5071382;28;20230;-74
2023/12/05 05:50:13;;;;;;;30.30;21.27;;;6.90;99.90;;;;;;5071455;28;20169;-75
2023/12/05 05:52:41;;;;;;;31.77;21.77;;;6.80;99.90;;;;;;5073262;28;20172;-75
2023/12/05 05:55:07;;;;;;;34.93;22.63;;;6.80;99.90;;;;;;5072758;28;20646;-75
2023/12/05 05:57:35;;;;;;;35.23;23.60;;;6.60;99.90;;;;;;5071617;28;20267;-74
2023/12/05 06:00:03;;;;;;;35.20;23.03;;;6.60;99.90;;;;;;5072533;28;20172;-75
2023/12/05 06:02:29;;;;;;;36.47;24.47;;;6.40;99.90;;;;;;5072201;28;20207;-75
2023/12/05 06:04:54;;;;;;;34.40;24.23;;;6.40;99.90;;;;;;5072408;28;20176;-76
2023/12/05 06:07:22;;;;;;;38.60;26.00;;;6.40;99.90;;;;;;5072476;28;20280;-75
2023/12/05 06:09:48;;;;;;;38.13;25.30;;;6.30;99.90;;;;;;5072789;28;20234;-75
2023/12/05 06:12:13;;;;;;;35.60;24.53;;;6.40;99.90;;;;;;5072343;28;20196;-75
2023/12/05 06:14:39;;;;;;;36.53;25.17;;;6.40;99.90;;;;;;5071424;28;20173;-75
2023/12/05 06:17:05;;;;;;;35.87;24.13;;;6.40;99.90;;;;;;5072650;28;20179;-75
2023/12/05 06:19:30;;;;;;;37.00;24.33;;;6.30;99.90;;;;;;5072924;28;20164;-75
2023/12/05 06:21:56;;;;;;;34.10;23.87;;;6.20;99.90;;;;;;5072251;28;20310;-76
2023/12/05 06:24:21;;;;;;;33.43;23.50;;;6.10;99.90;;;;;;5072515;28;20192;-75
2023/12/05 06:26:47;;;;;;;36.53;25.23;;;6.10;99.90;;;;;;5072008;28;20251;-75
2023/12/05 06:29:13;;;;;;;36.63;25.57;;;6.20;99.90;;;;;;5072006;28;20175;-74
2023/12/05 06:31:39;;;;;;;39.43;25.13;;;6.30;99.90;;;;;;5071840;28;20520;-75
2023/12/05 06:34:05;;;;;;;38.87;25.20;;;6.30;99.90;;;;;;5072528;28;20164;-74
2023/12/05 06:36:31;;;;;;;39.33;24.93;;;6.30;99.90;;;;;;5071663;28;20613;-75
2023/12/05 06:38:56;;;;;;;39.50;25.83;;;6.30;99.90;;;;;;5071637;28;20176;-74
2023/12/05 06:41:22;;;;;;;38.37;25.60;;;6.40;99.90;;;;;;5071612;28;20173;-75
2023/12/05 06:43:48;;;;;;;40.10;25.77;;;6.40;99.90;;;;;;5071787;28;20161;-76
2023/12/05 06:46:13;;;;;;;36.30;23.83;;;6.30;99.90;;;;;;5072206;28;20164;-75
2023/12/05 06:48:39;;;;;;;37.87;25.10;;;6.40;99.90;;;;;;5072350;28;20168;-76
2023/12/05 06:51:05;;;;;;;38.50;26.07;;;6.40;99.90;;;;;;5071405;28;20524;-75
2023/12/05 06:53:30;;;;;;;35.37;24.40;;;6.30;99.90;;;;;;5071645;28;20168;-75
2023/12/05 06:55:56;;;;;;;38.67;25.97;;;6.30;99.90;;;;;;5071239;28;20620;-75
2023/12/05 06:58:25;;;;;;;37.23;23.73;;;6.30;99.90;;;;;;5071048;28;20710;-74
2023/12/05 07:00:50;;;;;;;35.60;23.80;;;6.30;99.90;;;;;;5071134;28;20662;-75
2023/12/05 07:03:16;;;;;;;35.90;23.50;;;6.20;99.90;;;;;;5071880;28;20208;-75
2023/12/05 07:05:42;;;;;;;33.63;22.37;;;6.20;99.90;;;;;;5072153;28;20235;-76
2023/12/05 07:08:08;;;;;;;32.47;21.20;;;6.30;99.90;;;;;;5069843;28;20168;-74
2023/12/05 07:10:34;;;;;;;33.13;22.13;;;6.10;99.90;;;;;;5070130;28;20259;-74
2023/12/05 07:12:59;;;;;;;33.87;21.87;;;6.00;99.90;;;;;;5068926;28;20593;-75
2023/12/05 07:15:25;;;;;;;35.67;21.47;;;6.00;99.90;;;;;;5071165;28;20207;-75
2023/12/05 07:17:51;;;;;;;35.57;21.87;;;6.00;99.90;;;;;;5071625;28;20505;-75
2023/12/05 07:20:17;;;;;;;32.03;21.83;;;6.10;99.90;;;;;;5071283;28;20260;-74
2023/12/05 07:22:43;;;;;;;39.60;22.40;;;6.10;99.90;;;;;;5070778;28;20208;-76
2023/12/05 07:25:08;;;;;;;34.87;21.53;;;6.10;99.90;;;;;;5071136;28;20704;-76
2023/12/05 07:27:35;;;;;;;38.00;24.43;;;6.10;99.90;;;;;;5070560;28;20248;-76
2023/12/05 07:30:01;;;;;;;41.63;23.43;;;6.10;99.90;;;;;;5070988;28;20180;-76
2023/12/05 07:32:27;;;;;;;35.03;22.77;;;6.20;99.90;;;;;;5070337;28;20184;-76
2023/12/05 07:34:52;;;;;;;34.33;22.43;;;6.40;99.90;;;;;;5071281;28;20172;-78
2023/12/05 07:37:18;;;;;;;38.00;22.07;;;6.40;99.90;;;;;;5065941;28;20189;-75
2023/12/05 07:39:44;;;;;;;34.77;23.20;;;6.40;99.90;;;;;;5074552;28;20268;-73
2023/12/05 07:42:10;;;;;;;36.80;23.37;;;6.50;99.90;;;;;;5071563;28;20210;-72
2023/12/05 07:44:35;;;;;;;37.33;23.17;;;6.30;99.90;;;;;;5083999;28;20195;-72
2023/12/05 07:47:01;;;;;;;41.03;23.30;;;6.30;99.90;;;;;;5070165;28;20173;-73
2023/12/05 07:49:27;;;;;;;37.17;24.43;;;6.30;99.90;;;;;;5084568;28;20220;-74
2023/12/05 07:51:52;;;;;;;43.30;26.33;;;6.40;99.90;;;;;;5073796;28;20173;-72
2023/12/05 07:54:18;;;;;;;45.13;26.37;;;6.40;99.90;;;;;;5086673;28;20485;-73
2023/12/05 07:56:44;;;;;;;44.47;26.63;;;6.40;99.90;;;;;;5081782;28;20719;-72
2023/12/05 07:59:09;;;;;;;46.10;27.53;;;6.40;99.90;;;;;;5080507;28;20546;-73
2023/12/05 08:01:35;;;;;;;47.73;29.20;;;6.50;99.90;;;;;;5074409;28;20256;-74
2023/12/05 08:04:02;;;;;;;50.33;30.20;;;6.50;99.90;;;;;;5086522;28;20637;-74
2023/12/05 08:06:28;;;;;;;44.93;27.87;;;6.50;99.90;;;;;;5075172;28;20182;-72
2023/12/05 08:08:53;;;;;;;43.20;26.57;;;6.50;99.90;;;;;;5089028;28;20220;-75
2023/12/05 08:11:20;;;;;;;47.37;29.13;;;6.40;99.90;;;;;;5078820;28;20259;-74
2023/12/05 08:13:47;;;;;;;41.20;26.97;;;6.40;99.90;;;;;;5091073;28;20187;-72
2023/12/05 08:16:13;;;;;;;44.30;27.33;;;6.50;99.90;;;;;;5090331;28;20183;-73
2023/12/05 08:18:39;;;;;;;42.83;26.40;;;6.50;99.90;;;;;;5081002;28;20246;-73
2023/12/05 08:21:05;;;;;;;42.50;27.23;;;6.40;99.90;;;;;;5082848;28;20172;-74
2023/12/05 08:23:31;;;;;;;47.20;29.10;;;6.30;99.90;;;;;;5087391;28;20219;-71
2023/12/05 08:25:56;;;;;;;41.70;27.40;;;6.40;99.90;;;;;;5057864;28;20169;-75
2023/12/05 08:28:22;;;;;;;46.57;28.03;;;6.40;99.90;;;;;;5077690;28;20196;-73
2023/12/05 08:30:47;;;;;;;43.10;29.00;;;6.40;99.90;;;;;;5085306;28;20181;-74
2023/12/05 08:33:17;;;;;;;46.73;28.57;;;6.40;99.90;;;;;;5073376;28;20207;-76
2023/12/05 08:35:43;;;;;;;47.83;28.80;;;6.40;99.90;;;;;;5073746;28;20184;-75
2023/12/05 08:38:09;;;;;;;43.33;27.90;;;6.40;99.90;;;;;;5090291;28;20169;-77
2023/12/05 08:40:35;;;;;;;47.00;29.47;;;6.30;99.90;;;;;;5079842;28;20611;-76
2023/12/05 08:43:03;;;;;;;45.43;27.50;;;6.30;99.90;;;;;;5075923;28;20677;-76
2023/12/05 08:45:29;;;;;;;46.10;29.67;;;6.30;99.90;;;;;;5083259;28;20176;-74
2023/12/05 08:47:55;;;;;;;53.03;31.57;;;6.20;99.90;;;;;;5075582;28;20181;-76
2023/12/05 08:50:21;;;;;;;52.37;31.07;;;6.20;99.90;;;;;;5073129;28;20310;-74
2023/12/05 08:52:47;;;;;;;57.23;32.20;;;6.20;99.90;;;;;;5081605;28;20180;-76
2023/12/05 08:55:14;;;;;;;54.57;31.57;;;6.30;99.90;;;;;;5081517;28;20580;-74
2023/12/05 08:57:41;;;;;;;62.17;35.57;;;6.30;99.90;;;;;;5088216;28;20184;-73
2023/12/05 09:00:07;;;;;;;59.00;32.53;;;6.40;99.90;;;;;;5090427;28;20184;-75
2023/12/05 09:02:32;;;;;;;59.87;32.27;;;6.30;99.90;;;;;;5078119;28;20215;-76
2023/12/05 09:05:00;;;;;;;55.57;31.30;;;6.30;99.90;;;;;;5080225;28;20165;-75
2023/12/05 09:07:25;;;;;;;57.00;30.40;;;6.40;99.90;;;;;;5086229;28;20183;-76
2023/12/05 09:09:51;;;;;;;54.83;30.20;;;6.50;99.90;;;;;;5074289;28;20500;-75
2023/12/05 09:12:17;;;;;;;53.63;30.53;;;6.40;99.90;;;;;;5069210;28;20195;-75
2023/12/05 09:14:43;;;;;;;49.30;29.80;;;6.50;99.90;;;;;;5085768;28;20173;-74
2023/12/05 09:17:09;;;;;;;52.63;30.33;;;6.50;99.90;;;;;;5072972;28;20210;-76
2023/12/05 09:19:35;;;;;;;50.13;29.10;;;6.50;99.90;;;;;;5072189;28;20251;-76
2023/12/05 09:22:02;;;;;;;50.07;28.97;;;6.60;99.90;;;;;;5074151;28;20261;-74
2023/12/05 09:24:28;;;;;;;49.70;28.07;;;6.60;99.90;;;;;;5086329;28;20172;-78
2023/12/05 09:26:54;;;;;;;50.53;30.00;;;6.60;99.90;;;;;;5070913;28;20228;-74
2023/12/05 09:29:20;;;;;;;58.07;28.63;;;6.70;99.90;;;;;;5085808;28;20190;-74
2023/12/05 09:31:45;;;;;;;43.17;26.30;;;6.70;99.90;;;;;;5093407;28;20714;-74
2023/12/05 09:34:11;;;;;;;41.13;25.20;;;6.60;99.90;;;;;;5072544;28;20218;-74
2023/12/05 09:36:37;;;;;;;39.50;24.63;;;6.50;99.90;;;;;;5073138;28;20255;-75
2023/12/05 09:39:04;;;;;;;38.53;23.80;;;6.60;99.90;;;;;;5083245;28;20179;-75
2023/12/05 09:41:30;;;;;;;37.23;23.77;;;6.60;99.90;;;;;;5092116;28;20691;-76
2023/12/05 09:44:00;;;;;;;40.63;24.30;;;6.70;99.90;;;;;;5093067;28;20251;-77
2023/12/05 09:46:27;;;;;;;35.30;22.07;;;6.80;99.90;;;;;;5093338;28;20519;-76
2023/12/05 09:48:59;;;;;;;29.30;19.50;;;6.70;99.90;;;;;;5081781;28;20172;-75
2023/12/05 09:51:26;;;;;;;27.60;18.23;;;6.60;99.90;;;;;;5084424;28;20168;-76
2023/12/05 09:53:55;;;;;;;24.73;17.13;;;6.60;99.90;;;;;;5092523;28;20210;-78
2023/12/05 09:56:22;;;;;;;25.73;17.43;;;6.50;99.90;;;;;;5092836;28;20164;-76
2023/12/05 09:58:48;;;;;;;26.43;17.57;;;6.50;99.90;;;;;;5083699;28;20315;-77
2023/12/05 10:01:15;;;;;;;23.90;17.70;;;6.40;99.90;;;;;;5084526;28;20263;-77
2023/12/05 10:03:44;;;;;;;24.93;17.17;;;6.40;99.90;;;;;;5076150;28;20212;-76
2023/12/05 10:06:13;;;;;;;23.63;17.20;;;6.40;99.90;;;;;;5088941;28;20295;-75
2023/12/05 10:08:40;;;;;;;23.43;16.37;;;6.40;99.90;;;;;;5078277;28;20213;-76
2023/12/05 10:11:08;;;;;;;24.83;17.57;;;6.50;99.90;;;;;;5091303;28;20616;-78
2023/12/05 10:13:34;;;;;;;24.20;16.73;;;6.60;99.90;;;;;;5092286;28;20172;-76
2023/12/05 10:16:01;;;;;;;23.60;17.40;;;6.70;99.90;;;;;;5090346;28;20171;-76
2023/12/05 10:18:28;;;;;;;23.23;16.53;;;6.80;99.90;;;;;;5077342;28;20174;-76
2023/12/05 10:20:54;;;;;;;21.47;15.73;;;6.80;99.90;;;;;;5069305;28;20223;-79
2023/12/05 10:23:20;;;;;;;20.20;15.77;;;6.70;99.90;;;;;;5061870;28;20723;-78
2023/12/05 10:25:46;;;;;;;22.40;16.40;;;6.70;99.90;;;;;;5062670;28;20181;-78
2023/12/05 10:28:12;;;;;;;21.00;15.07;;;6.60;99.90;;;;;;5091899;28;20645;-78
2023/12/05 10:30:38;;;;;;;22.40;16.13;;;6.70;99.90;;;;;;5092879;28;20170;-77
2023/12/05 10:33:18;;;;;;;23.00;16.77;;;6.60;99.90;;;;;;5081105;28;20168;-77
2023/12/05 10:35:45;;;;;;;21.83;15.70;;;6.50;99.90;;;;;;5069175;28;20238;-78
2023/12/05 10:38:17;;;;;;;22.90;15.63;;;6.50;99.90;;;;;;5067929;28;20176;-77
2023/12/05 10:40:50;;;;;;;25.90;16.10;;;6.50;99.90;;;;;;5075287;28;20179;-75
2023/12/05 10:43:17;;;;;;;26.73;16.93;;;6.50;99.90;;;;;;5078347;28;20212;-76
2023/12/05 10:45:43;;;;;;;25.60;17.60;;;6.60;99.90;;;;;;5086890;28;20261;-76
2023/12/05 10:48:11;;;;;;;28.03;18.10;;;6.60;99.90;;;;;;5091544;28;20258;-79
2023/12/05 10:50:37;;;;;;;27.27;18.43;;;6.80;99.90;;;;;;5083847;28;20176;-77
2023/12/05 10:53:04;;;;;;;30.70;19.10;;;6.80;99.90;;;;;;5081220;28;20532;-77
2023/12/05 10:55:29;;;;;;;31.50;18.87;;;6.70;99.90;;;;;;5075722;28;20176;-77
2023/12/05 10:57:55;;;;;;;28.53;18.90;;;6.70;99.90;;;;;;5071498;28;20187;-77
2023/12/05 11:00:22;;;;;;;29.53;19.13;;;6.60;99.90;;;;;;5086495;28;20161;-79
2023/12/05 11:02:48;;;;;;;31.63;19.50;;;6.60;99.90;;;;;;5072332;28;20211;-78
2023/12/05 11:05:15;;;;;;;35.13;20.53;;;6.50;99.90;;;;;;5071275;28;20165;-79
2023/12/05 11:07:40;;;;;;;35.80;21.37;;;6.60;99.90;;;;;;5068345;28;20180;-78
2023/12/05 11:10:07;;;;;;;34.77;22.10;;;6.60;99.90;;;;;;5082398;28;20678;-74
2023/12/05 11:12:36;;;;;;;34.27;20.30;;;6.60;99.90;;;;;;5090361;28;20235;-78
2023/12/05 11:15:03;;;;;;;34.93;20.30;;;6.50;99.90;;;;;;5081042;28;20303;-80
2023/12/05 11:17:37;;;;;;;35.23;20.80;;;6.50;99.90;;;;;;5084346;28;20194;-77
2023/12/05 11:20:40;;;;;;;35.20;20.07;;;6.50;99.90;;;;;;5073083;28;20175;-78
2023/12/05 11:23:43;;;;;;;36.27;19.37;;;6.40;99.90;;;;;;5051552;28;20239;-81
2023/12/05 11:26:34;;;;;;;34.90;21.03;;;6.30;99.90;;;;;;5087294;28;20693;-80
2023/12/05 11:29:18;;;;;;;36.67;21.00;;;6.30;99.90;;;;;;5069948;28;20188;-81
2023/12/05 11:31:58;;;;;;;36.50;20.67;;;6.30;99.90;;;;;;5087099;28;20176;-78
2023/12/05 11:34:32;;;;;;;38.53;21.40;;;6.20;99.90;;;;;;5091673;28;20164;-78
2023/12/05 11:37:13;;;;;;;41.00;22.53;;;6.20;99.90;;;;;;5080822;28;20168;-78
2023/12/05 11:39:39;;;;;;;35.67;21.97;;;6.30;99.90;;;;;;5069520;28;20188;-79
2023/12/05 11:42:10;;;;;;;41.63;21.67;;;6.30;99.90;;;;;;5076128;28;20203;-79
2023/12/05 11:44:40;;;;;;;38.97;21.90;;;6.30;99.90;;;;;;5077894;28;20663;-74
2023/12/05 11:47:27;;;;;;;36.57;21.17;;;6.30;99.90;;;;;;5081279;28;20574;-78
2023/12/05 11:49:56;;;;;;;34.20;20.13;;;6.20;99.90;;;;;;5092433;28;20182;-80
2023/12/05 11:52:25;;;;;;;35.50;19.97;;;6.10;99.90;;;;;;5079946;28;20168;-78
2023/12/05 11:54:53;;;;;;;34.63;20.40;;;6.10;99.90;;;;;;5084164;28;20207;-77
2023/12/05 11:57:21;;;;;;;39.30;21.80;;;6.10;99.90;;;;;;5074213;28;20248;-77
2023/12/05 11:59:48;;;;;;;40.07;22.27;;;6.00;99.90;;;;;;5083885;28;20211;-79
2023/12/05 12:02:18;;;;;;;38.53;20.83;;;6.00;99.90;;;;;;5090031;28;20224;-78
2023/12/05 12:04:47;;;;;;;39.57;22.23;;;6.00;99.90;;;;;;5072639;28;20169;-78
2023/12/05 12:07:13;;;;;;;43.20;22.73;;;5.90;99.90;;;;;;5084134;28;20171;-77
2023/12/05 12:09:42;;;;;;;45.20;23.87;;;6.00;99.90;;;;;;5078088;28;20800;-78
2023/12/05 12:12:08;;;;;;;43.47;23.77;;;6.00;99.90;;;;;;5072607;28;20169;-77
2023/12/05 12:14:34;;;;;;;43.97;23.77;;;5.90;99.90;;;;;;5079584;28;20175;-78
2023/12/05 12:17:04;;;;;;;44.90;23.93;;;6.00;99.90;;;;;;5083562;28;20199;-77
2023/12/05 12:19:30;;;;;;;44.47;23.63;;;6.00;99.90;;;;;;5073632;28;20248;-82
2023/12/05 12:21:56;;;;;;;41.23;23.13;;;6.10;99.90;;;;;;5071895;28;20262;-77
2023/12/05 12:24:23;;;;;;;40.97;22.40;;;6.30;99.90;;;;;;5073999;28;20569;-78
2023/12/05 12:26:55;;;;;;;39.93;21.97;;;6.40;99.90;;;;;;5071282;28;20228;-77
2023/12/05 12:29:22;;;;;;;38.90;20.67;;;6.30;99.90;;;;;;5074659;28;20180;-75
2023/12/05 12:31:48;;;;;;;35.33;19.73;;;6.30;99.90;;;;;;5058669;28;20176;-76
2023/12/05 12:34:27;;;;;;;35.57;20.17;;;6.20;99.90;;;;;;5071493;28;20271;-76